Time;durP1;ratioP1;P1;durP2;ratioP2;P2;SDS_P1;SDS_P2;PMS_P1;PMS_P2;Temp;Humidity;BMP_temperature;BMP_pressure;BME280_temperature;BME280_humidity;BME280_pressure;Samples;Min_cycle;Max_cycle;Signal;HPM_P1;HPM_P2
2022/03/19 00:01:32;;;;;;;16.60;8.35;;;;;;;7.06;70.04;102622.25;4924231;29;20709;-78
2022/03/19 00:03:58;;;;;;;12.68;7.30;;;;;;;7.05;70.16;102626.00;4924347;29;20055;-78
2022/03/19 00:06:23;;;;;;;15.23;8.30;;;;;;;7.29;69.20;102616.13;4924396;29;20043;-78
2022/03/19 00:08:49;;;;;;;13.75;7.18;;;;;;;7.21;69.41;102621.56;4926035;29;20266;-78
2022/03/19 00:11:14;;;;;;;16.75;8.32;;;;;;;6.94;70.56;102618.19;4931093;29;20565;-78
2022/03/19 00:13:39;;;;;;;14.20;7.75;;;;;;;6.84;70.96;102629.19;4923648;29;20074;-78
2022/03/19 00:16:05;;;;;;;19.13;8.05;;;;;;;6.97;69.97;102626.00;4924151;29;20438;-79
2022/03/19 00:18:31;;;;;;;14.20;8.48;;;;;;;6.87;70.48;102629.75;4923822;29;20031;-79
2022/03/19 00:20:56;;;;;;;13.70;7.55;;;;;;;6.98;69.90;102622.25;4922784;29;20039;-79
2022/03/19 00:26:49;;;;;;;23.08;9.32;;;;;;;7.16;68.98;102627.50;4924407;29;20394;-78
2022/03/19 00:29:15;;;;;;;18.80;6.95;;;;;;;7.10;69.55;102612.75;4924208;29;20036;-78
2022/03/19 00:31:40;;;;;;;19.57;9.10;;;;;;;7.07;69.46;102610.38;4923477;29;20042;-78
2022/03/19 00:34:05;;;;;;;14.83;7.70;;;;;;;6.86;70.22;102609.03;4923353;29;20527;-77
2022/03/19 00:36:30;;;;;;;16.33;9.75;;;;;;;6.93;70.49;102616.50;4924003;29;20270;-79
2022/03/19 00:38:56;;;;;;;14.20;9.02;;;;;;;6.93;70.27;102600.22;4923429;29;20260;-78
2022/03/19 00:41:21;;;;;;;16.27;8.13;;;;;;;6.93;70.03;102602.94;4921709;29;20028;-79
2022/03/19 00:43:47;;;;;;;17.33;7.97;;;;;;;7.06;69.67;102605.16;4923089;29;20035;-78
2022/03/19 00:46:15;;;;;;;14.63;8.35;;;;;;;6.96;70.01;102608.88;4923688;29;20055;-79
2022/03/19 00:48:41;;;;;;;18.38;9.07;;;;;;;6.62;70.80;102605.31;4923444;29;20051;-78
2022/03/19 00:51:06;;;;;;;14.75;7.70;;;;;;;6.92;70.27;102603.94;4905494;29;20032;-79
2022/03/19 00:53:32;;;;;;;12.50;7.30;;;;;;;7.03;69.72;102598.19;4922742;29;20047;-78
2022/03/19 00:55:57;;;;;;;13.45;7.13;;;;;;;7.04;69.58;102605.28;4922088;29;20446;-78
2022/03/19 00:58:22;;;;;;;20.23;7.80;;;;;;;7.20;69.07;102599.00;4922536;29;20287;-79
2022/03/19 01:00:48;;;;;;;14.48;7.78;;;;;;;6.98;69.60;102605.97;4922423;29;20031;-79
2022/03/19 01:03:15;;;;;;;16.42;8.10;;;;;;;6.88;69.69;102609.72;4923301;29;20464;-77
2022/03/19 01:05:42;;;;;;;14.35;9.55;;;;;;;6.94;69.56;102607.34;4923373;29;20036;-78
2022/03/19 01:08:08;;;;;;;25.38;11.43;;;;;;;6.86;70.35;102598.19;4923358;29;20111;-78
2022/03/19 01:10:35;;;;;;;24.83;11.60;;;;;;;7.11;69.56;102592.75;4932466;29;20055;-78
2022/03/19 01:13:03;;;;;;;24.83;12.38;;;;;;;6.98;69.38;102590.56;4923057;29;20054;-79
2022/03/19 01:15:28;;;;;;;23.95;10.65;;;;;;;6.74;70.26;102594.13;4921346;29;20059;-79
2022/03/19 01:17:54;;;;;;;18.15;9.02;;;;;;;6.84;69.59;102578.53;4921983;29;20059;-79
2022/03/19 01:20:20;;;;;;;16.52;8.25;;;;;;;6.87;69.52;102591.75;4924157;29;20024;-78
2022/03/19 01:22:46;;;;;;;14.50;8.30;;;;;;;6.81;70.11;102584.31;4941977;29;20031;-79
2022/03/19 01:25:13;;;;;;;16.08;8.05;;;;;;;6.70;70.42;102585.47;4942053;29;20110;-78
2022/03/19 01:27:40;;;;;;;13.70;6.72;;;;;;;6.69;70.47;102578.34;4942527;29;20058;-78
2022/03/19 01:30:07;;;;;;;15.15;8.05;;;;;;;6.87;70.03;102575.50;4940099;29;20066;-78
2022/03/19 01:32:33;;;;;;;14.05;7.80;;;;;;;7.03;69.40;102578.34;4922454;29;20480;-79
2022/03/19 01:34:59;;;;;;;14.55;7.45;;;;;;;6.91;69.21;102575.13;4922628;29;20027;-79
2022/03/19 01:37:24;;;;;;;12.18;6.32;;;;;;;6.93;69.73;102567.69;4922434;29;20024;-79
2022/03/19 01:39:53;;;;;;;11.98;6.68;;;;;;;6.88;70.08;102571.75;4904531;29;20464;-78
2022/03/19 01:45:13;;;;;;;23.58;8.40;;;;;;;6.87;69.09;102567.34;4921361;29;20082;-78
2022/03/19 01:47:38;;;;;;;15.30;8.85;;;;;;;6.60;70.68;102563.97;4922690;29;20119;-80
2022/03/19 01:50:05;;;;;;;14.73;8.00;;;;;;;6.52;70.90;102563.97;4921915;29;20127;-78
2022/03/19 01:52:30;;;;;;;19.27;10.63;;;;;;;6.41;71.20;102565.97;4922135;29;20062;-79
2022/03/19 01:54:57;;;;;;;13.98;8.65;;;;;;;6.67;70.53;102568.72;4921943;29;20031;-79
2022/03/19 01:57:25;;;;;;;20.73;9.88;;;;;;;6.70;70.27;102563.78;4921561;29;20469;-79
2022/03/19 01:59:51;;;;;;;14.85;8.35;;;;;;;6.48;71.37;102570.72;4921468;29;20023;-80
2022/03/19 02:02:19;;;;;;;20.15;9.45;;;;;;;6.36;71.55;102565.66;4920820;29;20095;-79
2022/03/19 02:04:44;;;;;;;16.40;8.60;;;;;;;6.13;72.74;102560.84;4921718;29;20448;-79
2022/03/19 02:07:11;;;;;;;17.42;9.60;;;;;;;6.11;71.90;102564.72;4923287;29;20047;-79
2022/03/19 02:09:39;;;;;;;14.35;8.82;;;;;;;6.27;71.82;102558.50;4929657;29;20122;-78
2022/03/19 02:12:05;;;;;;;23.50;9.57;;;;;;;6.44;71.18;102559.38;4921467;29;20126;-79
2022/03/19 02:14:34;;;;;;;16.88;8.35;;;;;;;6.34;71.65;102561.41;4921723;29;20652;-79
2022/03/19 02:17:01;;;;;;;16.77;8.52;;;;;;;6.52;71.19;102550.41;4922759;29;20110;-77
2022/03/19 02:19:26;;;;;;;14.50;8.50;;;;;;;6.40;71.56;102548.03;4923046;29;20164;-79
2022/03/19 02:21:52;;;;;;;14.97;7.97;;;;;;;6.50;70.89;102553.28;4911002;29;20044;-80
2022/03/19 02:27:02;;;;;;;;;;;;;;;6.41;70.84;102560.56;4922776;29;20114;-78
2022/03/19 02:29:28;;;;;;;15.63;8.40;;;;;;;6.38;71.29;102560.06;4922527;29;20490;-79
2022/03/19 02:31:57;;;;;;;12.98;6.35;;;;;;;6.40;70.78;102553.47;4905758;29;20487;-78
2022/03/19 02:34:23;;;;;;;13.55;7.95;;;;;;;6.46;70.94;102545.66;4922322;29;20039;-80
2022/03/19 02:36:49;;;;;;;17.88;8.25;;;;;;;6.53;70.88;102541.25;4922885;29;20131;-79
2022/03/19 02:39:18;;;;;;;13.65;7.53;;;;;;;6.28;71.17;102547.53;4922838;29;20111;-79
2022/03/19 02:41:45;;;;;;;22.23;10.07;;;;;;;6.38;70.96;102532.94;4921243;29;20039;-79
2022/03/19 02:44:11;;;;;;;19.73;9.38;;;;;;;6.60;70.42;102536.84;4922318;29;20035;-81
2022/03/19 02:46:38;;;;;;;17.17;8.32;;;;;;;6.57;70.17;102530.94;4922264;29;20055;-79
2022/03/19 02:49:04;;;;;;;11.50;7.13;;;;;;;6.57;70.43;102539.06;4922748;29;20065;-78
2022/03/19 02:51:32;;;;;;;19.23;8.93;;;;;;;6.67;69.79;102541.59;4922199;29;20071;-79
2022/03/19 02:53:57;;;;;;;16.02;7.30;;;;;;;6.54;70.53;102538.38;4922713;29;20040;-80
2022/03/19 02:56:23;;;;;;;14.07;9.07;;;;;;;5.94;72.63;102540.28;4925113;29;20070;-78
2022/03/19 02:58:48;;;;;;;17.25;10.07;;;;;;;6.01;72.57;102532.34;4926524;29;20309;-79
2022/03/19 03:01:13;;;;;;;14.23;8.23;;;;;;;6.05;72.52;102526.44;4926425;29;20055;-79
2022/03/19 03:03:41;;;;;;;19.10;8.73;;;;;;;5.99;72.54;102528.97;4926069;29;20266;-78
2022/03/19 03:06:06;;;;;;;14.50;7.60;;;;;;;6.06;72.56;102532.75;4925690;29;20268;-79
2022/03/19 03:08:31;;;;;;;14.05;8.15;;;;;;;5.68;73.13;102533.94;4926381;29;20023;-79
2022/03/19 03:10:57;;;;;;;19.67;8.48;;;;;;;5.66;74.22;102525.16;4942416;29;20031;-79
2022/03/19 03:13:22;;;;;;;25.88;9.93;;;;;;;5.59;73.39;102516.00;4927042;29;20028;-79
2022/03/19 03:18:31;;;;;;;19.73;9.95;;;;;;;5.01;75.81;102522.81;4925163;29;20118;-79
2022/03/19 03:20:58;;;;;;;20.88;10.10;;;;;;;5.02;75.44;102523.66;4925754;29;20103;-80
2022/03/19 03:23:23;;;;;;;18.20;10.70;;;;;;;5.00;76.44;102523.81;4925537;29;20135;-78
2022/03/19 03:25:49;;;;;;;17.85;9.10;;;;;;;5.33;74.55;102527.72;4926346;29;20272;-79
2022/03/19 03:28:14;;;;;;;24.08;10.70;;;;;;;5.06;75.45;102516.94;4926437;29;20387;-77
2022/03/19 03:30:42;;;;;;;21.43;11.27;;;;;;;5.41;74.56;102516.91;4925692;29;20174;-79
2022/03/19 03:33:08;;;;;;;20.25;9.30;;;;;;;5.54;73.87;102519.19;4925119;29;20273;-79
2022/03/19 03:35:33;;;;;;;16.50;9.82;;;;;;;5.12;75.07;102518.16;4925754;29;20039;-78
2022/03/19 03:37:58;;;;;;;25.55;9.80;;;;;;;5.40;74.51;102515.25;4925635;29;20677;-79
2022/03/19 03:40:24;;;;;;;18.17;9.65;;;;;;;5.19;75.61;102523.75;4924615;29;20122;-79
2022/03/19 03:42:49;;;;;;;20.10;10.30;;;;;;;5.22;75.73;102518.03;4924958;29;20130;-78
2022/03/19 03:45:14;;;;;;;19.95;10.50;;;;;;;5.28;75.72;102520.09;4926151;29;20059;-77
2022/03/19 03:47:40;;;;;;;21.97;10.67;;;;;;;5.60;73.86;102502.28;4924948;29;20035;-77
2022/03/19 03:50:05;;;;;;;19.65;8.90;;;;;;;5.28;74.61;102516.53;4924938;29;20274;-79
2022/03/19 03:52:31;;;;;;;16.10;11.05;;;;;;;5.54;74.26;102508.34;4925230;29;20434;-77
2022/03/19 03:54:57;;;;;;;30.23;11.82;;;;;;;5.44;74.15;102507.63;4925768;29;20039;-78
2022/03/19 03:57:22;;;;;;;24.38;11.35;;;;;;;5.44;75.06;102499.53;4925342;29;20028;-79
2022/03/19 03:59:52;;;;;;;17.23;9.80;;;;;;;5.22;74.82;102499.94;4925577;29;20296;-78
2022/03/19 04:02:18;;;;;;;23.33;12.88;;;;;;;5.29;75.38;102502.00;4925027;29;20086;-78
2022/03/19 04:04:43;;;;;;;23.88;13.55;;;;;;;5.14;75.54;102505.31;4925209;29;20031;-78
2022/03/19 04:07:08;;;;;;;20.80;11.60;;;;;;;5.31;74.76;102497.28;4924144;29;20597;-79
2022/03/19 04:09:35;;;;;;;19.85;11.10;;;;;;;5.41;74.49;102491.75;4929152;29;20028;-77
2022/03/19 04:12:03;;;;;;;26.15;10.10;;;;;;;5.17;75.27;102499.56;4908153;29;20042;-79
2022/03/19 04:14:28;;;;;;;19.33;9.57;;;;;;;5.04;75.72;102502.72;4925452;29;20383;-77
2022/03/19 04:16:54;;;;;;;20.48;10.40;;;;;;;5.26;75.23;102497.75;4924704;29;20087;-79
2022/03/19 04:19:19;;;;;;;18.40;11.70;;;;;;;5.32;74.50;102501.66;4907793;29;20098;-79
2022/03/19 04:21:44;;;;;;;21.17;9.33;;;;;;;5.35;74.38;102495.94;4924297;29;20047;-78
2022/03/19 04:24:10;;;;;;;20.95;10.05;;;;;;;5.30;74.63;102493.72;4924344;29;20298;-79
2022/03/19 04:26:36;;;;;;;16.65;9.57;;;;;;;5.41;73.81;102499.84;4924616;29;20035;-78
2022/03/19 04:29:01;;;;;;;16.42;7.63;;;;;;;5.40;74.88;102498.16;4924259;29;20458;-79
2022/03/19 04:31:26;;;;;;;21.83;11.05;;;;;;;5.45;74.26;102496.66;4924699;29;20134;-78
2022/03/19 04:34:06;;;;;;;17.30;10.07;;;;;;;5.47;73.83;102494.63;4925042;29;20031;-77
2022/03/19 04:36:38;;;;;;;13.77;8.60;;;;;;;5.44;74.42;102500.38;4924658;29;20911;-77
2022/03/19 04:39:05;;;;;;;14.75;7.50;;;;;;;5.66;72.98;102495.38;4924664;29;20036;-79
2022/03/19 04:41:33;;;;;;;16.05;10.13;;;;;;;5.47;73.68;102482.97;4924226;29;20042;-78
2022/03/19 04:43:59;;;;;;;17.67;9.38;;;;;;;5.36;74.59;102492.22;4924239;29;20051;-79
2022/03/19 04:46:25;;;;;;;16.15;9.25;;;;;;;5.51;73.93;102486.19;4923514;29;20071;-79
2022/03/19 04:48:50;;;;;;;16.67;9.30;;;;;;;5.53;73.04;102481.47;4923967;29;20131;-79
2022/03/19 04:51:20;;;;;;;13.05;7.53;;;;;;;5.47;74.06;102482.97;4916351;29;20554;-78
2022/03/19 04:53:50;;;;;;;20.05;9.20;;;;;;;5.44;73.79;102480.56;4906765;29;20161;-77
2022/03/19 04:56:22;;;;;;;16.10;8.63;;;;;;;5.49;73.46;102487.19;4906900;29;20057;-78
2022/03/19 04:58:50;;;;;;;27.85;9.20;;;;;;;5.40;74.42;102482.78;4924626;29;20039;-79
2022/03/19 05:01:16;;;;;;;13.63;8.65;;;;;;;5.58;73.95;102479.09;4912926;29;20126;-79
2022/03/19 05:03:41;;;;;;;15.98;8.98;;;;;;;5.31;74.75;102483.75;4904947;29;20383;-79
2022/03/19 05:06:08;;;;;;;17.67;8.30;;;;;;;5.48;74.24;102480.09;4905352;29;20036;-80
2022/03/19 05:08:33;;;;;;;25.70;12.30;;;;;;;5.56;73.67;102486.53;4905491;29;20143;-77
2022/03/19 05:11:13;;;;;;;18.63;9.38;;;;;;;5.45;73.67;102490.41;4945196;28;20756;-78
2022/03/19 05:13:48;;;;;;;14.48;9.27;;;;;;;5.41;74.26;102487.16;4924865;29;20476;-79
2022/03/19 05:16:18;;;;;;;13.65;8.25;;;;;;;5.22;74.61;102497.25;4906517;29;20040;-78
2022/03/19 05:18:43;;;;;;;19.13;8.52;;;;;;;5.44;74.09;102494.09;4924157;29;20036;-79
2022/03/19 05:21:11;;;;;;;14.32;9.82;;;;;;;5.51;73.81;102486.19;4923641;29;20126;-78
2022/03/19 05:23:36;;;;;;;15.60;9.45;;;;;;;5.49;74.11;102497.19;4924276;29;20688;-77
2022/03/19 05:26:01;;;;;;;14.52;7.57;;;;;;;5.36;73.99;102494.94;4924291;29;20043;-78
2022/03/19 05:28:26;;;;;;;20.98;10.38;;;;;;;5.49;73.76;102486.38;4923948;29;20555;-79
2022/03/19 05:30:53;;;;;;;17.05;8.27;;;;;;;5.43;74.00;102492.44;4923686;29;20055;-78
2022/03/19 05:33:19;;;;;;;21.50;9.55;;;;;;;5.30;74.41;102498.28;4924139;29;20046;-78
2022/03/19 05:35:45;;;;;;;16.98;10.20;;;;;;;5.29;74.32;102496.59;4923821;29;20031;-79
2022/03/19 05:38:10;;;;;;;15.07;8.48;;;;;;;5.55;73.79;102490.28;4923723;29;20035;-78
2022/03/19 05:40:36;;;;;;;22.35;9.85;;;;;;;5.48;73.81;102490.06;4922642;29;20068;-79
2022/03/19 05:43:01;;;;;;;18.35;9.10;;;;;;;5.49;74.09;102500.72;4922646;29;20039;-79
2022/03/19 05:45:27;;;;;;;15.00;8.02;;;;;;;5.55;73.96;102499.22;4923223;29;20039;-79
2022/03/19 05:47:52;;;;;;;15.18;9.35;;;;;;;5.53;73.93;102503.13;4923044;29;20142;-79
2022/03/19 05:50:18;;;;;;;15.80;8.05;;;;;;;5.66;73.11;102498.06;4922962;29;20136;-78
2022/03/19 05:52:47;;;;;;;18.55;9.93;;;;;;;5.50;73.40;102490.75;4923818;29;20036;-78
2022/03/19 05:55:13;;;;;;;20.65;9.85;;;;;;;5.71;73.28;102494.88;4923297;29;20607;-78
2022/03/19 05:57:40;;;;;;;16.23;9.52;;;;;;;5.68;73.42;102496.06;4923063;29;20347;-78
2022/03/19 06:00:08;;;;;;;20.65;10.63;;;;;;;5.61;73.64;102495.03;4923177;29;20027;-78
2022/03/19 06:02:38;;;;;;;16.38;8.98;;;;;;;5.34;74.31;102502.34;4922563;29;20042;-77
2022/03/19 06:05:04;;;;;;;18.98;9.63;;;;;;;5.22;74.69;102508.06;4922560;29;20027;-80
2022/03/19 06:07:43;;;;;;;16.73;8.82;;;;;;;5.48;74.28;102507.16;4923626;29;20046;-77
2022/03/19 06:10:09;;;;;;;14.00;8.27;;;;;;;5.29;74.80;102499.31;4930314;29;20031;-78
2022/03/19 06:12:34;;;;;;;22.52;9.48;;;;;;;5.39;74.69;102508.13;4922080;29;20463;-79
2022/03/19 06:15:00;;;;;;;18.10;10.18;;;;;;;5.40;74.87;102504.41;4922755;29;20042;-79
2022/03/19 06:17:25;;;;;;;21.95;11.40;;;;;;;5.58;74.22;102500.75;4923168;29;20031;-79
2022/03/19 06:19:51;;;;;;;24.60;12.07;;;;;;;5.68;74.19;102503.31;4922965;29;20038;-77
2022/03/19 06:22:16;;;;;;;22.00;9.80;;;;;;;5.67;73.71;102499.78;4902362;29;20053;-79
2022/03/19 06:24:42;;;;;;;21.55;10.73;;;;;;;5.87;73.48;102504.91;4919090;29;20083;-79
2022/03/19 06:27:07;;;;;;;17.45;9.15;;;;;;;5.72;73.66;102501.97;4922622;29;20047;-78
2022/03/19 06:29:33;;;;;;;21.65;9.93;;;;;;;5.57;74.72;102499.06;4922395;29;20129;-79
2022/03/19 06:31:58;;;;;;;20.35;11.20;;;;;;;5.79;73.69;102503.03;4925723;29;20046;-79
2022/03/19 06:34:23;;;;;;;18.17;10.98;;;;;;;5.82;73.53;102505.41;4926409;29;20122;-80
2022/03/19 06:39:32;;;;;;;21.48;10.00;;;;;;;6.01;73.58;102511.53;4927477;29;20073;-78
2022/03/19 06:41:58;;;;;;;22.73;9.98;;;;;;;5.88;73.23;102508.47;4925902;29;20036;-78
2022/03/19 06:44:23;;;;;;;20.43;9.30;;;;;;;5.89;74.32;102511.00;4927182;29;20732;-78
2022/03/19 06:46:49;;;;;;;18.17;9.32;;;;;;;5.82;74.50;102513.53;4926946;29;20266;-77
2022/03/19 06:49:15;;;;;;;18.35;10.52;;;;;;;6.03;73.50;102505.94;4926536;29;20058;-78
2022/03/19 06:51:40;;;;;;;20.10;10.52;;;;;;;6.12;73.58;102513.09;4919588;29;20135;-79
2022/03/19 06:57:27;;;;;;;16.42;8.73;;;;;;;6.06;73.70;102508.38;4925474;29;20051;-79
2022/03/19 06:59:53;;;;;;;20.10;11.40;;;;;;;5.94;74.60;102505.94;4926544;29;20035;-78
2022/03/19 07:02:18;;;;;;;18.80;9.77;;;;;;;6.05;73.58;102507.47;4906513;29;20303;-78
2022/03/19 07:04:44;;;;;;;22.25;10.63;;;;;;;6.08;73.81;102503.63;4925263;29;20063;-79
2022/03/19 07:07:09;;;;;;;24.10;10.55;;;;;;;6.12;73.36;102502.25;4924200;29;20554;-78
2022/03/19 07:09:34;;;;;;;22.93;10.67;;;;;;;6.24;73.29;102510.06;4930074;29;20031;-78
2022/03/19 07:11:59;;;;;;;17.42;9.38;;;;;;;6.26;73.19;102499.91;4926826;29;20372;-79
2022/03/19 07:14:25;;;;;;;18.10;9.13;;;;;;;6.42;73.08;102501.78;4925486;29;20361;-80
2022/03/19 07:16:51;;;;;;;18.27;10.05;;;;;;;6.27;73.01;102507.03;4924839;29;20032;-79
2022/03/19 07:19:16;;;;;;;18.08;9.57;;;;;;;6.22;73.68;102502.13;4924253;29;20028;-76
2022/03/19 07:21:41;;;;;;;17.13;9.80;;;;;;;6.35;73.42;102500.75;4906642;29;20122;-82
2022/03/19 07:24:07;;;;;;;14.23;8.07;;;;;;;6.21;73.82;102499.56;4925280;29;20031;-80
2022/03/19 07:26:33;;;;;;;19.60;10.48;;;;;;;6.32;73.30;102498.41;4921604;29;20090;-80
2022/03/19 07:28:59;;;;;;;20.60;9.18;;;;;;;6.45;73.36;102498.72;4918799;29;20044;-81
2022/03/19 07:34:08;;;;;;;16.45;8.02;;;;;;;6.55;72.79;102490.41;4924360;29;20066;-80
2022/03/19 07:36:34;;;;;;;15.05;7.35;;;;;;;6.50;73.18;102493.66;4932109;29;20519;-80
2022/03/19 07:38:59;;;;;;;17.08;9.20;;;;;;;6.46;73.01;102495.00;4927253;29;20058;-79
2022/03/19 07:44:08;;;;;;;23.38;8.93;;;;;;;6.76;72.32;102487.19;4925653;29;20050;-80
2022/03/19 07:46:35;;;;;;;19.08;9.77;;;;;;;6.81;72.29;102488.53;4925810;29;20704;-79
2022/03/19 07:49:01;;;;;;;16.70;9.60;;;;;;;6.82;71.99;102488.34;4917866;29;20058;-79
2022/03/19 07:51:28;;;;;;;17.52;8.90;;;;;;;6.81;72.36;102486.69;4923576;29;20058;-80
2022/03/19 07:53:53;;;;;;;16.95;9.75;;;;;;;6.99;71.82;102474.75;4923674;29;20035;-79
2022/03/19 07:56:18;;;;;;;17.52;8.60;;;;;;;6.78;72.45;102484.28;4923823;29;20481;-79
2022/03/19 07:58:50;;;;;;;15.45;8.23;;;;;;;7.20;70.72;102473.34;4924996;29;20410;-80
2022/03/19 08:01:15;;;;;;;17.08;8.23;;;;;;;7.26;70.61;102486.19;4924460;29;20133;-79
2022/03/19 08:03:40;;;;;;;15.98;9.43;;;;;;;7.24;70.26;102478.22;4924890;29;20117;-79
2022/03/19 08:06:06;;;;;;;25.35;11.13;;;;;;;7.43;69.67;102476.13;4924321;29;20119;-80
2022/03/19 08:08:33;;;;;;;24.73;10.38;;;;;;;7.45;70.56;102476.78;4923993;29;20470;-82
2022/03/19 08:10:58;;;;;;;15.55;8.43;;;;;;;7.55;70.16;102479.28;4928964;29;20035;-79
2022/03/19 08:13:23;;;;;;;19.50;9.43;;;;;;;7.47;70.49;102476.59;4905241;29;20090;-79
2022/03/19 08:15:48;;;;;;;18.00;8.63;;;;;;;7.52;69.59;102487.78;4905780;29;20063;-79
2022/03/19 08:18:14;;;;;;;16.83;9.53;;;;;;;7.49;70.29;102480.00;4905061;29;20255;-78
2022/03/19 08:20:39;;;;;;;18.55;7.80;;;;;;;7.71;69.50;102480.22;4909458;29;20385;-78
2022/03/19 08:23:05;;;;;;;22.88;8.52;;;;;;;7.82;68.66;102479.81;4924024;29;20071;-80
2022/03/19 08:25:31;;;;;;;18.67;9.00;;;;;;;7.78;68.76;102477.63;4923560;29;20035;-80
2022/03/19 08:27:57;;;;;;;15.25;8.02;;;;;;;7.73;68.93;102480.06;4923339;29;20643;-80
2022/03/19 08:30:22;;;;;;;15.85;8.45;;;;;;;7.83;67.75;102486.09;4922708;29;20040;-81
2022/03/19 08:32:47;;;;;;;15.00;8.00;;;;;;;7.97;67.93;102476.34;4923155;29;20044;-80
2022/03/19 08:35:13;;;;;;;12.45;7.28;;;;;;;7.94;67.82;102482.97;4905391;29;20070;-81
2022/03/19 08:37:38;;;;;;;16.75;9.18;;;;;;;8.01;67.42;102477.66;4923520;29;20620;-80
2022/03/19 08:40:16;;;;;;;13.82;7.55;;;;;;;7.91;67.86;102483.31;4922860;29;20040;-79
2022/03/19 08:42:51;;;;;;;13.45;8.05;;;;;;;8.04;67.37;102477.28;4917378;29;20473;-80
2022/03/19 08:45:18;;;;;;;13.80;8.15;;;;;;;7.91;67.49;102482.50;4923436;29;20075;-80
2022/03/19 08:47:44;;;;;;;17.95;8.98;;;;;;;8.12;67.77;102468.22;4924071;29;20463;-79
2022/03/19 08:50:09;;;;;;;13.32;7.10;;;;;;;8.30;66.63;102456.19;4923112;29;20035;-79
2022/03/19 08:52:36;;;;;;;13.98;7.50;;;;;;;8.38;65.88;102468.88;4906411;29;20038;-80
2022/03/19 08:58:22;;;;;;;16.92;8.93;;;;;;;8.34;65.54;102470.28;4921818;29;20055;-80
2022/03/19 09:00:49;;;;;;;13.87;6.90;;;;;;;8.26;65.97;102463.88;4923253;29;20035;-78
2022/03/19 09:03:15;;;;;;;13.60;7.38;;;;;;;8.37;65.64;102468.03;4923774;29;20285;-80
2022/03/19 09:05:41;;;;;;;13.38;7.53;;;;;;;8.41;65.51;102460.34;4922452;29;20119;-80
2022/03/19 09:08:06;;;;;;;14.05;7.15;;;;;;;8.24;65.96;102454.19;4922971;29;20114;-80
2022/03/19 09:10:31;;;;;;;19.95;9.48;;;;;;;8.44;65.67;102457.25;4921795;29;20047;-81
2022/03/19 09:12:57;;;;;;;18.20;8.73;;;;;;;8.51;65.96;102458.22;4922981;29;20032;-78
2022/03/19 09:15:23;;;;;;;17.13;7.60;;;;;;;8.61;64.99;102449.81;4923558;29;20051;-80
2022/03/19 09:17:48;;;;;;;11.88;7.18;;;;;;;8.73;64.19;102443.91;4922659;29;20028;-79
2022/03/19 09:20:13;;;;;;;11.43;6.25;;;;;;;8.74;63.44;102443.75;4921648;29;20052;-78
2022/03/19 09:22:38;;;;;;;14.70;6.38;;;;;;;8.89;63.19;102439.34;4920854;29;20417;-79
2022/03/19 09:25:04;;;;;;;13.43;8.00;;;;;;;8.78;63.54;102448.81;4921305;29;20079;-82
2022/03/19 09:27:30;;;;;;;17.40;6.35;;;;;;;8.66;62.97;102438.41;4922523;29;20094;-82
2022/03/19 09:29:55;;;;;;;25.40;8.02;;;;;;;8.93;63.73;102430.59;4936612;29;20031;-83
2022/03/19 09:32:20;;;;;;;26.50;6.47;;;;;;;8.88;63.27;102427.63;4923213;29;20047;-83
2022/03/19 09:34:49;;;;;;;13.95;5.97;;;;;;;8.98;63.64;102432.78;4921668;29;20039;-80
2022/03/19 09:37:16;;;;;;;89.63;12.25;;;;;;;9.17;62.54;102435.94;4921533;29;20040;-83
2022/03/19 09:39:41;;;;;;;24.58;6.88;;;;;;;9.18;61.86;102416.69;4921940;29;20027;-82
2022/03/19 09:42:10;;;;;;;83.70;11.68;;;;;;;9.13;61.91;102424.59;4923322;29;20028;-83
2022/03/19 09:44:36;;;;;;;21.77;6.22;;;;;;;9.02;61.29;102422.34;4940647;29;20031;-82
2022/03/19 09:47:02;;;;;;;15.23;7.88;;;;;;;9.08;60.75;102416.16;4941130;29;20038;-82
2022/03/19 09:49:27;;;;;;;14.15;6.10;;;;;;;9.14;60.78;102418.09;4941014;29;20855;-83
2022/03/19 09:51:54;;;;;;;13.60;6.95;;;;;;;9.29;60.71;102411.81;4924885;29;20062;-83
2022/03/19 09:54:23;;;;;;;821.40;234.32;;;;;;;9.19;58.65;102412.94;4921378;29;20217;-82
2022/03/19 09:56:49;;;;;;;1999.90;711.53;;;;;;;9.31;59.12;102409.72;4921508;29;20522;-81
2022/03/19 09:59:15;;;;;;;1999.90;865.22;;;;;;;9.33;57.75;102396.78;4921401;29;20035;-83
2022/03/19 10:01:40;;;;;;;586.40;154.20;;;;;;;9.34;57.98;102393.00;4922011;29;20043;-81
2022/03/19 10:04:11;;;;;;;231.05;43.25;;;;;;;9.48;57.76;102394.00;4904609;29;20546;-82
2022/03/19 10:09:40;;;;;;;114.38;18.17;;;;;;;9.72;57.55;102382.94;4925526;29;20067;-82
2022/03/19 10:12:22;;;;;;;29.05;8.52;;;;;;;9.64;55.53;102392.91;4922855;29;20043;-82
2022/03/19 10:14:48;;;;;;;30.48;5.93;;;;;;;9.45;53.66;102387.06;4920639;29;20039;-82
2022/03/19 10:17:31;;;;;;;45.22;14.07;;;;;;;9.52;53.74;102386.31;4904617;29;20036;-81
2022/03/19 10:20:07;;;;;;;12.88;4.80;;;;;;;9.56;53.67;102374.81;4921337;29;20043;-81
2022/03/19 10:22:34;;;;;;;13.85;5.30;;;;;;;9.87;54.16;102383.69;4920978;29;20534;-81
2022/03/19 10:25:05;;;;;;;14.07;4.90;;;;;;;10.15;54.32;102382.03;4921107;29;20038;-81
2022/03/19 10:27:34;;;;;;;21.92;5.78;;;;;;;9.85;53.54;102374.88;4920953;29;20331;-81
2022/03/19 10:30:03;;;;;;;14.18;6.07;;;;;;;10.07;53.15;102374.84;4920791;29;21233;-81
2022/03/19 10:32:28;;;;;;;18.88;4.88;;;;;;;10.14;52.48;102372.19;4921702;29;20483;-80
2022/03/19 10:34:54;;;;;;;9.88;4.32;;;;;;;10.21;51.18;102369.50;4920693;29;20528;-81
2022/03/19 10:37:41;;;;;;;11.65;3.28;;;;;;;10.28;50.78;102370.41;4922289;29;20036;-82
2022/03/19 10:40:09;;;;;;;25.65;4.97;;;;;;;9.93;49.87;102368.44;4920588;29;20035;-81
2022/03/19 10:42:38;;;;;;;19.92;5.07;;;;;;;10.33;50.85;102362.44;4928662;29;20026;-82
2022/03/19 10:45:08;;;;;;;9.18;3.22;;;;;;;10.25;48.87;102365.34;4940405;29;20027;-82
2022/03/19 10:47:42;;;;;;;10.30;2.72;;;;;;;10.44;47.94;102352.03;4939708;29;20490;-79
2022/03/19 10:50:08;;;;;;;;;;;;;;;9.89;44.03;102346.19;4940072;29;20051;-82
2022/03/19 10:52:36;;;;;;;10.30;2.55;;;;;;;10.22;45.47;102352.94;4941042;29;19918;-81
2022/03/19 10:55:07;;;;;;;20.30;3.33;;;;;;;10.23;45.35;102340.16;4939680;29;20066;-81
2022/03/19 10:57:33;;;;;;;21.20;2.97;;;;;;;10.38;45.40;102337.31;4923191;29;20028;-79
2022/03/19 10:59:58;;;;;;;8.70;2.10;;;;;;;10.79;46.62;102343.88;4939633;29;20490;-80
2022/03/19 11:02:28;;;;;;;6.97;1.98;;;;;;;10.53;44.69;102325.47;4920900;29;20474;-80
2022/03/19 11:04:57;;;;;;;21.45;3.70;;;;;;;10.73;47.08;102328.31;4920352;29;20028;-80
2022/03/19 11:07:24;;;;;;;32.75;3.45;;;;;;;10.54;44.59;102327.16;4921131;29;20043;-81
2022/03/19 11:09:51;;;;;;;17.95;3.72;;;;;;;10.56;43.09;102316.88;4930618;29;20042;-79
2022/03/19 11:12:20;;;;;;;15.50;3.15;;;;;;;10.68;43.70;102311.72;4921229;29;20031;-80
2022/03/19 11:17:50;;;;;;;7.05;1.85;;;;;;;11.04;44.31;102291.47;4922353;29;20082;-79
2022/03/19 11:20:16;;;;;;;3.17;1.20;;;;;;;10.95;42.30;102289.97;4906734;29;20403;-80
2022/03/19 11:22:49;;;;;;;16.55;1.95;;;;;;;10.97;41.59;102291.44;4924179;29;20031;-80
2022/03/19 11:25:22;;;;;;;25.80;5.28;;;;;;;10.92;40.86;102284.94;4944231;29;20034;-79
2022/03/19 11:27:50;;;;;;;22.00;3.22;;;;;;;10.90;39.91;102287.84;4944050;29;20265;-80
2022/03/19 11:30:24;;;;;;;11.32;1.85;;;;;;;11.01;39.06;102280.09;4942618;29;20186;-80
2022/03/19 11:33:16;;;;;;;11.32;1.70;;;;;;;11.23;39.02;102271.78;4943342;29;20038;-80
2022/03/19 11:35:44;;;;;;;3.53;1.23;;;;;;;11.21;39.39;102274.69;4908414;29;20040;-80
2022/03/19 11:38:21;;;;;;;4.97;1.80;;;;;;;11.21;39.12;102269.22;4924396;29;20035;-80
2022/03/19 11:40:54;;;;;;;4.35;1.38;;;;;;;11.23;38.93;102267.13;4923307;29;20749;-80
2022/03/19 11:43:25;;;;;;;6.28;1.38;;;;;;;11.18;38.68;102266.94;4924452;29;20140;-81
2022/03/19 11:45:53;;;;;;;4.13;1.13;;;;;;;11.49;39.82;102262.75;4922648;29;20393;-80
2022/03/19 11:48:34;;;;;;;14.80;1.67;;;;;;;11.29;38.39;102258.09;4917157;29;20024;-79
2022/03/19 11:51:22;;;;;;;4.35;1.73;;;;;;;11.33;36.76;102239.41;4914217;29;20106;-80
2022/03/19 11:53:53;;;;;;;6.38;1.20;;;;;;;11.66;39.35;102238.59;4927415;29;20118;-79
2022/03/19 11:56:20;;;;;;;3.97;1.10;;;;;;;11.66;38.38;102245.94;4931379;29;20035;-81